Time;durP1;ratioP1;P1;durP2;ratioP2;P2;SDS_P1;SDS_P2;PMS_P1;PMS_P2;Temp;Humidity;BMP_temperature;BMP_pressure;BME280_temperature;BME280_humidity;BME280_pressure;Samples;Min_cycle;Max_cycle;Signal;HPM_P1;HPM_P2
2024/03/05 00:00:14;;;;;;;42.23;23.63;;;8.10;27.70;;;;;;5095285;28;20233;-72
2024/03/05 00:02:43;;;;;;;39.40;22.13;;;8.00;27.10;;;;;;5096286;28;20237;-71
2024/03/05 00:05:13;;;;;;;44.47;23.60;;;8.10;27.40;;;;;;5094712;28;20420;-70
2024/03/05 00:07:43;;;;;;;40.97;24.57;;;8.00;27.30;;;;;;5094552;28;20418;-71
2024/03/05 00:10:08;;;;;;;43.37;24.73;;;8.00;27.20;;;;;;5094889;28;20480;-71
2024/03/05 00:12:34;;;;;;;46.57;24.80;;;8.00;27.20;;;;;;5096247;28;20819;-71
2024/03/05 00:15:01;;;;;;;50.33;27.10;;;8.00;28.10;;;;;;5095730;28;20212;-71
2024/03/05 00:17:32;;;;;;;43.87;24.13;;;8.00;28.20;;;;;;5095811;28;20475;-71
2024/03/05 00:19:57;;;;;;;42.47;25.57;;;8.10;27.30;;;;;;5095608;28;20401;-73
2024/03/05 00:22:24;;;;;;;37.07;20.53;;;8.10;26.30;;;;;;5095704;28;20423;-72
2024/03/05 00:24:58;;;;;;;46.40;26.20;;;8.00;26.20;;;;;;5095637;28;20301;-72
2024/03/05 00:27:25;;;;;;;40.20;22.57;;;7.90;26.40;;;;;;5094346;28;20444;-72
2024/03/05 00:29:51;;;;;;;43.53;23.50;;;7.90;26.70;;;;;;5095832;28;20937;-72
2024/03/05 00:32:17;;;;;;;47.30;25.40;;;7.90;27.40;;;;;;5095756;28;20406;-72
2024/03/05 00:34:42;;;;;;;39.27;24.80;;;7.80;27.50;;;;;;5094997;28;20247;-72
2024/03/05 00:37:24;;;;;;;43.40;26.77;;;7.80;28.80;;;;;;5095223;28;20547;-73
2024/03/05 00:39:50;;;;;;;46.50;24.80;;;7.80;29.90;;;;;;5095531;28;20178;-73
2024/03/05 00:42:16;;;;;;;39.00;24.40;;;7.90;28.90;;;;;;5094566;28;20418;-72
2024/03/05 00:44:42;;;;;;;43.73;25.07;;;7.80;28.90;;;;;;5095152;28;20517;-72
2024/03/05 00:47:07;;;;;;;41.27;22.93;;;7.80;29.70;;;;;;5094983;28;20196;-72
2024/03/05 00:49:33;;;;;;;39.93;23.77;;;7.90;29.30;;;;;;5094845;28;20421;-71
2024/03/05 00:52:02;;;;;;;35.47;21.87;;;7.90;28.90;;;;;;5095328;28;20182;-73
2024/03/05 00:54:28;;;;;;;41.70;23.90;;;8.00;28.00;;;;;;5094925;28;20621;-72
2024/03/05 00:56:53;;;;;;;40.50;25.33;;;8.10;27.00;;;;;;5095328;28;20517;-72
2024/03/05 00:59:19;;;;;;;41.20;23.23;;;8.10;26.30;;;;;;5093762;28;20449;-72
2024/03/05 01:01:44;;;;;;;38.37;22.10;;;8.10;26.30;;;;;;5094715;28;20176;-71
2024/03/05 01:04:10;;;;;;;47.33;25.27;;;8.10;26.60;;;;;;5094622;28;20438;-72
2024/03/05 01:06:36;;;;;;;43.97;25.50;;;8.10;27.10;;;;;;5094832;28;20201;-72
2024/03/05 01:09:02;;;;;;;41.37;25.10;;;8.00;26.20;;;;;;5094680;28;20418;-72
2024/03/05 01:11:30;;;;;;;48.70;26.93;;;7.90;27.30;;;;;;5093642;28;20195;-72
2024/03/05 01:13:55;;;;;;;37.80;23.47;;;7.90;27.80;;;;;;5094414;28;20460;-72
2024/03/05 01:16:21;;;;;;;45.57;27.00;;;7.90;27.70;;;;;;5094766;28;20951;-72
2024/03/05 01:18:46;;;;;;;48.53;26.43;;;8.00;28.40;;;;;;5094633;28;20172;-71
2024/03/05 01:21:12;;;;;;;50.87;28.90;;;8.00;27.30;;;;;;5095127;28;20251;-73
2024/03/05 01:23:38;;;;;;;46.20;27.37;;;8.00;27.00;;;;;;5093662;28;20168;-72
2024/03/05 01:26:03;;;;;;;38.93;22.53;;;8.10;26.90;;;;;;5093897;28;20203;-72
2024/03/05 01:28:29;;;;;;;44.50;25.17;;;8.10;26.30;;;;;;5122195;22;20231;-71
2024/03/05 01:30:54;;;;;;;43.33;25.37;;;8.10;26.60;;;;;;5114551;28;20179;-70
2024/03/05 01:33:21;;;;;;;37.13;22.90;;;8.10;25.60;;;;;;5114600;28;20177;-71
2024/03/05 01:35:51;;;;;;;34.80;22.03;;;8.10;26.30;;;;;;5114861;28;20228;-71
2024/03/05 01:38:17;;;;;;;37.73;21.97;;;8.10;25.60;;;;;;5114128;28;20433;-73
2024/03/05 01:40:43;;;;;;;39.40;24.03;;;8.10;24.60;;;;;;5115731;28;20414;-70
2024/03/05 01:43:09;;;;;;;40.00;23.83;;;8.10;25.40;;;;;;5115485;28;20312;-71
2024/03/05 01:45:35;;;;;;;45.00;24.80;;;8.10;25.30;;;;;;5114782;28;20352;-71
2024/03/05 01:48:01;;;;;;;42.90;24.13;;;8.00;25.60;;;;;;5113785;28;20426;-71
2024/03/05 01:50:28;;;;;;;51.03;23.80;;;8.00;26.20;;;;;;5113920;28;20189;-71
2024/03/05 01:52:55;;;;;;;37.53;21.87;;;8.00;26.30;;;;;;5114608;28;20487;-71
2024/03/05 01:55:22;;;;;;;40.13;22.97;;;8.10;25.50;;;;;;5114440;28;20513;-70
2024/03/05 01:57:49;;;;;;;44.07;24.33;;;8.00;25.30;;;;;;5114463;28;20500;-70
2024/03/05 02:00:20;;;;;;;40.70;23.40;;;8.00;26.50;;;;;;5114362;28;20421;-71
2024/03/05 02:02:46;;;;;;;43.67;24.77;;;7.90;26.80;;;;;;5113675;28;20412;-72
2024/03/05 02:05:12;;;;;;;42.27;24.20;;;8.00;28.10;;;;;;5113986;28;20420;-70
2024/03/05 02:07:42;;;;;;;47.07;26.37;;;8.00;27.20;;;;;;5113797;28;20415;-71
2024/03/05 02:10:08;;;;;;;40.80;22.70;;;8.10;26.30;;;;;;5114194;28;20441;-71
2024/03/05 02:12:40;;;;;;;40.33;24.40;;;8.10;26.30;;;;;;5114025;28;20421;-71
2024/03/05 02:15:11;;;;;;;36.37;22.77;;;8.10;26.30;;;;;;5113582;28;20516;-71
2024/03/05 02:17:40;;;;;;;40.70;24.90;;;8.10;26.30;;;;;;5113615;28;20509;-70
2024/03/05 02:20:09;;;;;;;47.10;26.57;;;8.20;25.70;;;;;;5112893;28;20433;-70
2024/03/05 02:22:39;;;;;;;35.60;24.30;;;8.10;24.80;;;;;;5113476;28;20407;-71
2024/03/05 02:25:05;;;;;;;42.93;26.40;;;8.00;26.20;;;;;;5113185;28;20410;-70
2024/03/05 02:27:31;;;;;;;41.60;24.37;;;8.00;26.90;;;;;;5113283;28;20506;-71
2024/03/05 02:29:57;;;;;;;42.23;21.30;;;7.90;27.00;;;;;;5113479;28;20463;-71
2024/03/05 02:32:24;;;;;;;40.90;24.20;;;8.00;27.00;;;;;;5112188;28;20417;-71
2024/03/05 02:34:54;;;;;;;44.60;24.30;;;8.00;27.50;;;;;;5112869;28;20563;-70
2024/03/05 02:37:21;;;;;;;40.23;26.00;;;8.00;28.00;;;;;;5113554;28;20440;-70
2024/03/05 02:39:46;;;;;;;45.97;26.63;;;8.00;28.20;;;;;;5111859;28;20959;-71
2024/03/05 02:42:12;;;;;;;47.30;26.57;;;8.00;28.30;;;;;;5113224;28;20481;-71
2024/03/05 02:44:37;;;;;;;47.00;25.80;;;8.00;29.20;;;;;;5112958;28;20182;-71
2024/03/05 02:47:04;;;;;;;43.20;22.53;;;7.90;29.00;;;;;;5113251;28;20178;-71
2024/03/05 02:49:30;;;;;;;46.07;25.73;;;7.90;29.70;;;;;;5113003;28;20232;-70
2024/03/05 02:51:55;;;;;;;46.03;25.10;;;7.90;30.10;;;;;;5112969;28;20419;-71
2024/03/05 02:54:21;;;;;;;50.87;27.37;;;7.80;30.00;;;;;;5112436;28;20250;-71
2024/03/05 02:56:47;;;;;;;49.40;26.27;;;7.80;30.00;;;;;;5112997;28;20198;-71
2024/03/05 02:59:12;;;;;;;44.80;24.33;;;7.80;30.70;;;;;;5112872;28;20911;-70
2024/03/05 03:01:38;;;;;;;54.50;24.90;;;7.80;31.40;;;;;;5113159;28;20174;-70
2024/03/05 03:04:05;;;;;;;43.60;25.73;;;7.80;30.80;;;;;;5112678;28;20421;-71
2024/03/05 03:06:31;;;;;;;48.13;26.47;;;7.80;31.80;;;;;;5111501;28;20183;-71
2024/03/05 03:08:56;;;;;;;48.00;28.47;;;7.90;31.80;;;;;;5111344;28;20461;-71
2024/03/05 03:11:22;;;;;;;44.73;27.00;;;7.90;30.90;;;;;;5112908;28;20179;-70
2024/03/05 03:13:48;;;;;;;45.53;24.90;;;8.00;30.50;;;;;;5112615;28;20167;-70
2024/03/05 03:16:14;;;;;;;43.70;24.80;;;8.10;30.30;;;;;;5113173;28;20969;-71
2024/03/05 03:18:39;;;;;;;41.47;26.03;;;8.10;29.60;;;;;;5112774;28;20703;-71
2024/03/05 03:21:05;;;;;;;53.17;28.70;;;8.10;29.70;;;;;;5112537;28;20454;-71
2024/03/05 03:23:30;;;;;;;49.33;29.83;;;8.10;28.80;;;;;;5112501;28;20486;-71
2024/03/05 03:25:59;;;;;;;48.17;27.43;;;8.10;29.20;;;;;;5112512;28;20665;-70
2024/03/05 03:28:24;;;;;;;40.10;23.53;;;8.10;29.30;;;;;;5112039;28;20673;-70
2024/03/05 03:30:54;;;;;;;38.27;22.80;;;8.10;29.10;;;;;;5114388;28;20421;-70
2024/03/05 03:33:21;;;;;;;41.73;23.37;;;8.10;29.90;;;;;;5116555;28;20184;-70
2024/03/05 03:35:47;;;;;;;44.40;25.87;;;8.10;30.00;;;;;;5116287;28;20564;-70
2024/03/05 03:38:12;;;;;;;42.20;25.27;;;8.00;30.30;;;;;;5116309;28;20422;-70
2024/03/05 03:40:41;;;;;;;50.10;25.40;;;8.00;30.20;;;;;;5116877;28;20416;-70
2024/03/05 03:43:06;;;;;;;45.00;25.40;;;8.00;30.30;;;;;;5116367;28;20179;-70
2024/03/05 03:45:32;;;;;;;46.13;24.80;;;8.10;29.90;;;;;;5116327;28;20417;-69
2024/03/05 03:47:57;;;;;;;38.20;23.03;;;8.10;30.30;;;;;;5116238;28;20171;-71
2024/03/05 03:50:23;;;;;;;43.30;23.43;;;8.10;30.40;;;;;;5116093;28;20169;-70
2024/03/05 03:52:49;;;;;;;42.77;23.70;;;8.10;30.00;;;;;;5116291;28;20170;-69
2024/03/05 03:55:15;;;;;;;51.13;26.50;;;8.10;29.90;;;;;;5115903;28;20214;-70
2024/03/05 03:57:41;;;;;;;44.40;27.20;;;8.10;30.30;;;;;;5116251;28;20221;-69
2024/03/05 04:00:07;;;;;;;50.17;27.30;;;8.00;30.20;;;;;;5116262;28;20436;-69
2024/03/05 04:02:35;;;;;;;43.40;25.30;;;8.00;30.80;;;;;;5115883;28;20626;-70
2024/03/05 04:05:04;;;;;;;39.50;24.30;;;8.10;30.30;;;;;;5115701;28;20919;-70
2024/03/05 04:07:31;;;;;;;48.10;27.10;;;8.10;30.40;;;;;;5115947;28;20413;-70
2024/03/05 04:09:59;;;;;;;57.57;28.20;;;8.10;29.20;;;;;;5115879;28;20436;-69
2024/03/05 04:12:25;;;;;;;46.03;25.80;;;7.90;29.90;;;;;;5115854;28;20449;-70
2024/03/05 04:14:51;;;;;;;49.43;26.13;;;7.90;31.50;;;;;;5114281;28;20519;-71
2024/03/05 04:17:19;;;;;;;42.93;26.67;;;8.00;30.20;;;;;;5114365;28;20669;-70
2024/03/05 04:19:45;;;;;;;47.03;23.80;;;8.00;29.70;;;;;;5115952;28;20424;-71
2024/03/05 04:22:14;;;;;;;44.87;26.63;;;8.00;30.20;;;;;;5114884;28;20785;-71
2024/03/05 04:24:42;;;;;;;40.63;23.73;;;8.00;30.20;;;;;;5115887;28;20469;-70
2024/03/05 04:27:11;;;;;;;51.17;25.10;;;8.00;30.20;;;;;;5116775;28;20413;-70
2024/03/05 04:29:41;;;;;;;49.30;28.20;;;8.00;30.20;;;;;;5117195;28;20500;-71
2024/03/05 04:32:10;;;;;;;43.07;22.80;;;8.10;30.30;;;;;;5119246;28;20421;-70
2024/03/05 04:34:39;;;;;;;36.67;24.90;;;8.10;30.40;;;;;;5113835;28;20461;-69
2024/03/05 04:37:08;;;;;;;42.10;24.90;;;8.10;30.30;;;;;;5113925;28;20417;-70
2024/03/05 04:39:34;;;;;;;52.03;27.47;;;8.00;30.00;;;;;;5115437;28;20864;-70
2024/03/05 04:41:59;;;;;;;49.43;24.13;;;8.10;30.30;;;;;;5114646;28;20488;-70
2024/03/05 04:44:25;;;;;;;44.83;27.00;;;8.10;29.90;;;;;;5113831;28;20179;-71
2024/03/05 04:46:51;;;;;;;46.97;25.40;;;8.00;30.20;;;;;;5115300;27;20198;-71
2024/03/05 04:49:17;;;;;;;47.67;26.27;;;8.00;30.20;;;;;;5113730;28;20505;-71
2024/03/05 04:51:42;;;;;;;51.97;26.07;;;7.90;30.70;;;;;;5115096;28;20239;-70
2024/03/05 04:54:09;;;;;;;46.13;26.03;;;7.90;30.30;;;;;;5114706;28;20210;-70
2024/03/05 04:56:36;;;;;;;47.30;28.07;;;7.90;30.80;;;;;;5115210;28;20172;-70
2024/03/05 04:59:01;;;;;;;46.37;27.10;;;7.90;31.40;;;;;;5114670;28;20424;-70
2024/03/05 05:01:27;;;;;;;51.73;27.50;;;8.00;30.20;;;;;;5114900;28;20924;-70
2024/03/05 05:03:52;;;;;;;47.10;28.70;;;7.90;30.10;;;;;;5114634;28;20210;-70
2024/03/05 05:06:18;;;;;;;44.53;25.70;;;7.90;30.50;;;;;;5113531;28;20536;-69
2024/03/05 05:08:45;;;;;;;48.13;28.37;;;7.90;31.40;;;;;;5114974;28;20239;-69
2024/03/05 05:11:11;;;;;;;43.33;23.43;;;8.00;30.30;;;;;;5114594;28;20172;-70
2024/03/05 05:13:36;;;;;;;51.80;28.07;;;7.90;31.10;;;;;;5114707;28;20462;-70
2024/03/05 05:16:02;;;;;;;41.40;24.43;;;7.90;30.10;;;;;;5113334;28;20215;-70
2024/03/05 05:18:28;;;;;;;48.33;27.80;;;7.90;32.10;;;;;;5114717;28;20187;-70
2024/03/05 05:20:54;;;;;;;60.87;26.40;;;7.90;32.30;;;;;;5114768;28;20162;-69
2024/03/05 05:23:19;;;;;;;45.53;26.67;;;7.80;31.30;;;;;;5114604;28;20512;-70
2024/03/05 05:25:45;;;;;;;48.30;26.07;;;7.80;32.90;;;;;;5113237;28;20220;-71
2024/03/05 05:28:11;;;;;;;52.43;26.60;;;7.80;33.30;;;;;;5113024;28;20182;-70
2024/03/05 05:30:37;;;;;;;53.00;26.63;;;7.80;33.30;;;;;;5114812;28;20202;-70
2024/03/05 05:33:03;;;;;;;58.77;27.43;;;7.90;33.60;;;;;;5114438;28;20413;-70
2024/03/05 05:35:28;;;;;;;47.23;26.93;;;7.90;32.50;;;;;;5114217;28;20199;-70
2024/03/05 05:37:56;;;;;;;49.00;27.03;;;7.80;34.00;;;;;;5114709;28;20415;-70
2024/03/05 05:40:22;;;;;;;52.33;29.80;;;7.80;33.30;;;;;;5113139;28;20268;-70
2024/03/05 05:42:48;;;;;;;50.90;27.03;;;7.70;34.40;;;;;;5113829;28;20489;-70
2024/03/05 05:45:14;;;;;;;59.77;31.53;;;7.70;36.80;;;;;;5113841;28;20232;-69
2024/03/05 05:47:53;;;;;;;50.80;29.30;;;7.70;35.80;;;;;;5114261;28;20417;-69
2024/03/05 05:50:25;;;;;;;47.20;25.57;;;7.70;37.70;;;;;;5114597;28;20180;-73
2024/03/05 05:52:54;;;;;;;45.47;23.27;;;7.80;36.30;;;;;;5114320;28;20429;-70
2024/03/05 05:55:22;;;;;;;51.27;26.73;;;7.80;36.40;;;;;;5113374;28;20529;-71
2024/03/05 05:57:49;;;;;;;53.13;28.90;;;7.80;35.30;;;;;;5112968;28;20951;-70
2024/03/05 06:00:24;;;;;;;50.63;27.47;;;7.70;37.30;;;;;;5115969;28;20481;-71
2024/03/05 06:02:54;;;;;;;56.37;27.60;;;7.70;38.10;;;;;;5116346;28;20408;-71
2024/03/05 06:05:26;;;;;;;44.27;26.67;;;7.80;37.40;;;;;;5115680;28;20498;-70
2024/03/05 06:07:52;;;;;;;46.33;25.57;;;7.80;38.60;;;;;;5115304;28;20416;-70
2024/03/05 06:10:18;;;;;;;44.83;26.33;;;7.80;38.30;;;;;;5112467;28;20471;-70
2024/03/05 06:12:46;;;;;;;48.33;26.53;;;7.80;37.50;;;;;;5113585;28;20708;-70
2024/03/05 06:15:12;;;;;;;50.73;26.50;;;7.80;38.10;;;;;;5111891;28;20586;-70
2024/03/05 06:17:40;;;;;;;45.10;26.40;;;7.80;39.70;;;;;;5113346;28;20405;-70
2024/03/05 06:20:10;;;;;;;50.47;27.07;;;7.90;38.00;;;;;;5113404;28;20493;-69
2024/03/05 06:22:37;;;;;;;48.23;27.87;;;7.90;37.30;;;;;;5113313;28;20413;-70
2024/03/05 06:25:03;;;;;;;49.07;28.10;;;7.90;37.80;;;;;;5113793;28;20408;-69
2024/03/05 06:27:28;;;;;;;38.90;25.67;;;7.90;36.30;;;;;;5114270;27;21006;-69
2024/03/05 06:29:54;;;;;;;48.70;26.70;;;7.90;38.30;;;;;;5113838;28;20455;-69
2024/03/05 06:32:20;;;;;;;47.67;26.80;;;7.90;37.00;;;;;;5113766;28;20170;-69
2024/03/05 06:34:46;;;;;;;45.17;26.20;;;7.80;36.60;;;;;;5113017;28;20195;-69
2024/03/05 06:37:11;;;;;;;44.20;27.70;;;7.80;37.40;;;;;;5113095;28;20424;-70
2024/03/05 06:39:41;;;;;;;63.57;27.80;;;7.80;37.90;;;;;;5113135;28;20317;-76
2024/03/05 06:42:10;;;;;;;52.17;27.00;;;7.80;38.30;;;;;;5113051;28;20593;-68
2024/03/05 06:44:36;;;;;;;43.33;26.70;;;7.90;39.50;;;;;;5112631;28;20413;-70
2024/03/05 06:47:04;;;;;;;52.20;26.47;;;7.90;37.30;;;;;;5112653;28;20416;-70
2024/03/05 06:49:38;;;;;;;49.87;27.63;;;7.90;38.50;;;;;;5112606;28;20440;-70
2024/03/05 06:57:33;;;;;;;43.43;26.73;;;7.80;40.00;;;;;;5112648;28;20432;-71
2024/03/05 06:59:59;;;;;;;46.10;27.70;;;8.00;38.80;;;;;;5111268;28;20903;-71
2024/03/05 07:02:27;;;;;;;49.67;27.27;;;8.00;36.60;;;;;;5112260;28;20711;-71
2024/03/05 07:04:53;;;;;;;46.90;26.00;;;7.90;37.30;;;;;;5112139;28;20680;-71
2024/03/05 07:07:19;;;;;;;61.73;31.13;;;8.00;37.20;;;;;;5112281;28;21006;-71
2024/03/05 07:09:45;;;;;;;53.43;28.03;;;8.00;37.10;;;;;;5112358;28;20436;-71
2024/03/05 07:12:12;;;;;;;52.00;26.53;;;8.10;36.70;;;;;;5100890;28;20445;-71
2024/03/05 07:14:38;;;;;;;43.47;26.97;;;8.10;36.40;;;;;;5107824;28;20654;-70
2024/03/05 07:17:06;;;;;;;50.30;29.27;;;8.00;35.50;;;;;;5112372;28;20516;-71
2024/03/05 07:19:32;;;;;;;51.87;27.63;;;7.90;37.50;;;;;;5112109;28;20955;-72
2024/03/05 07:21:57;;;;;;;47.60;26.90;;;7.90;38.60;;;;;;5112227;28;20463;-71
2024/03/05 07:24:23;;;;;;;53.27;29.20;;;7.80;40.40;;;;;;5111662;28;20477;-70
2024/03/05 07:26:48;;;;;;;59.80;31.93;;;7.80;40.40;;;;;;5111732;28;20642;-70
2024/03/05 07:29:14;;;;;;;60.10;29.10;;;7.70;40.40;;;;;;5111134;22;20241;-71
2024/03/05 07:31:41;;;;;;;56.27;30.37;;;7.80;42.10;;;;;;5051097;28;20178;-73
2024/03/05 07:34:06;;;;;;;52.30;30.47;;;7.80;42.80;;;;;;5052126;28;20205;-71
2024/03/05 07:36:33;;;;;;;51.63;30.33;;;7.90;43.10;;;;;;5051397;28;20911;-71
2024/03/05 07:38:59;;;;;;;55.63;30.20;;;8.00;41.70;;;;;;5051228;28;20656;-70
2024/03/05 07:41:24;;;;;;;50.30;26.03;;;8.00;40.60;;;;;;5033565;28;20440;-71
2024/03/05 07:43:50;;;;;;;50.60;27.53;;;8.10;40.90;;;;;;5051977;28;20675;-70
2024/03/05 07:46:18;;;;;;;52.03;29.00;;;;;;;;;;5053043;28;20173;-69
2024/03/05 07:48:43;;;;;;;49.23;26.97;;;8.00;44.90;;;;;;5050290;28;20250;-70
2024/03/05 07:51:10;;;;;;;39.00;24.70;;;;;;;;;;5051685;28;20795;-69
2024/03/05 07:53:36;;;;;;;41.97;22.37;;;7.90;55.80;;;;;;5051383;28;20173;-70
2024/03/05 07:56:04;;;;;;;44.27;25.60;;;8.10;54.30;;;;;;5033628;28;20464;-70
2024/03/05 07:58:30;;;;;;;42.07;23.50;;;8.20;47.80;;;;;;5051390;28;20416;-70
2024/03/05 08:00:58;;;;;;;43.60;27.17;;;;;;;;;;5052230;28;20412;-70
2024/03/05 08:03:23;;;;;;;44.57;25.07;;;8.50;35.30;;;;;;5051443;28;20409;-72
2024/03/05 08:05:50;;;;;;;39.20;22.03;;;8.60;34.40;;;;;;5051717;28;20412;-71
2024/03/05 08:08:16;;;;;;;49.80;26.07;;;8.80;30.90;;;;;;5033647;28;20236;-71
2024/03/05 08:10:42;;;;;;;41.93;23.10;;;9.00;30.00;;;;;;5051454;28;20439;-70
2024/03/05 08:13:07;;;;;;;46.63;25.00;;;9.20;27.40;;;;;;5051569;28;20668;-70
2024/03/05 08:15:33;;;;;;;42.50;22.40;;;9.30;26.60;;;;;;5051234;28;20558;-70
2024/03/05 08:17:58;;;;;;;29.40;18.47;;;9.30;24.50;;;;;;5053457;28;20167;-70
2024/03/05 08:20:25;;;;;;;33.00;18.37;;;9.20;21.00;;;;;;5037690;28;20205;-70
2024/03/05 08:22:52;;;;;;;34.70;17.80;;;9.00;24.90;;;;;;5056228;28;20175;-70
2024/03/05 08:25:18;;;;;;;31.90;18.60;;;9.00;24.80;;;;;;5038125;28;20791;-70
2024/03/05 08:27:59;;;;;;;28.80;17.63;;;9.00;24.00;;;;;;5037415;28;20447;-69
2024/03/05 08:30:29;;;;;;;28.80;16.03;;;8.90;25.20;;;;;;5055220;28;20537;-70
2024/03/05 08:32:55;;;;;;;24.33;17.20;;;8.90;23.90;;;;;;5055305;28;20428;-71
2024/03/05 08:35:22;;;;;;;20.30;15.27;;;8.90;24.50;;;;;;5054860;28;20452;-70
2024/03/05 08:37:49;;;;;;;24.37;13.63;;;9.00;21.80;;;;;;5057417;28;20178;-72
2024/03/05 08:40:16;;;;;;;25.37;14.03;;;8.90;22.60;;;;;;5060160;28;20506;-70
2024/03/05 08:42:43;;;;;;;23.70;14.23;;;8.90;21.00;;;;;;5059613;28;20452;-72
2024/03/05 08:45:15;;;;;;;22.03;12.93;;;9.00;21.70;;;;;;5057307;28;20754;-73
2024/03/05 08:47:44;;;;;;;17.90;13.00;;;8.80;20.50;;;;;;5063492;28;20462;-71
2024/03/05 08:50:13;;;;;;;21.83;11.43;;;8.80;20.80;;;;;;5070627;28;20436;-71
2024/03/05 08:52:40;;;;;;;23.13;12.03;;;8.70;20.20;;;;;;5071599;28;20434;-71
2024/03/05 08:55:10;;;;;;;22.60;14.10;;;8.90;21.70;;;;;;5066831;28;20470;-70
2024/03/05 08:57:39;;;;;;;17.47;11.70;;;9.00;21.00;;;;;;5030438;28;20429;-72
2024/03/05 09:00:09;;;;;;;14.07;10.40;;;9.20;19.50;;;;;;5030608;28;20528;-70
2024/03/05 09:02:35;;;;;;;17.63;11.43;;;9.30;17.20;;;;;;5030766;28;20463;-71
2024/03/05 09:05:04;;;;;;;16.50;11.70;;;9.50;16.70;;;;;;5043250;28;20495;-71
2024/03/05 09:07:30;;;;;;;21.47;12.87;;;9.40;13.70;;;;;;5069894;28;20446;-71
2024/03/05 09:09:58;;;;;;;16.97;11.60;;;9.10;16.10;;;;;;5070315;28;20452;-70
2024/03/05 09:12:23;;;;;;;18.77;11.13;;;9.20;18.20;;;;;;5037459;28;20444;-72
2024/03/05 09:14:49;;;;;;;21.33;11.47;;;9.30;16.90;;;;;;5049391;28;20463;-71
2024/03/05 09:17:14;;;;;;;16.33;10.70;;;9.50;16.50;;;;;;5050368;28;20177;-71
2024/03/05 09:19:40;;;;;;;18.63;11.60;;;9.70;15.10;;;;;;5049834;28;20457;-70
2024/03/05 09:22:05;;;;;;;16.70;11.43;;;9.50;14.30;;;;;;5049347;28;20181;-71
2024/03/05 09:24:32;;;;;;;15.10;11.30;;;9.50;14.50;;;;;;5050040;28;20667;-71
2024/03/05 09:27:10;;;;;;;17.50;11.40;;;9.60;14.50;;;;;;5049744;28;20564;-71
2024/03/05 09:29:36;;;;;;;13.97;9.30;;;9.40;13.30;;;;;;5049443;28;20660;-71
2024/03/05 09:32:02;;;;;;;16.23;11.47;;;9.20;15.10;;;;;;5050131;28;20430;-72
2024/03/05 09:34:38;;;;;;;18.77;11.53;;;9.20;15.80;;;;;;5050704;28;20213;-73
2024/03/05 09:37:05;;;;;;;17.20;11.60;;;9.20;16.70;;;;;;5031747;28;20438;-71
2024/03/05 09:39:30;;;;;;;16.77;10.83;;;9.20;15.70;;;;;;5049494;28;20428;-71
2024/03/05 09:41:56;;;;;;;15.80;10.73;;;9.40;15.60;;;;;;5048371;28;20421;-71
2024/03/05 09:44:22;;;;;;;19.73;10.07;;;9.20;14.30;;;;;;5049291;28;20194;-71
2024/03/05 09:46:48;;;;;;;15.47;10.33;;;9.40;13.60;;;;;;5047092;28;20194;-72
2024/03/05 09:49:18;;;;;;;12.87;9.23;;;9.40;13.10;;;;;;5049099;28;20206;-71
2024/03/05 09:51:45;;;;;;;11.63;8.67;;;9.30;12.10;;;;;;5049311;28;20478;-71
2024/03/05 09:54:14;;;;;;;18.17;11.20;;;9.40;11.30;;;;;;5049677;28;20456;-70
2024/03/05 09:56:42;;;;;;;14.70;8.73;;;9.40;10.10;;;;;;5049061;28;20425;-71
2024/03/05 09:59:12;;;;;;;11.53;8.73;;;9.40;10.50;;;;;;5049007;28;20440;-71
2024/03/05 10:01:41;;;;;;;12.60;9.73;;;9.30;11.20;;;;;;5049233;28;20428;-71
2024/03/05 10:04:12;;;;;;;11.67;8.67;;;9.30;12.30;;;;;;5049610;28;20790;-71
2024/03/05 10:06:38;;;;;;;13.07;8.23;;;9.30;11.20;;;;;;5049282;28;20499;-70
2024/03/05 10:09:05;;;;;;;11.93;8.13;;;9.30;9.50;;;;;;5048690;28;20441;-72
2024/03/05 10:11:31;;;;;;;12.30;7.77;;;9.30;10.50;;;;;;5050033;28;20799;-71
2024/03/05 10:14:04;;;;;;;9.83;6.87;;;9.20;9.90;;;;;;5048128;28;20436;-70
2024/03/05 10:16:30;;;;;;;8.70;6.73;;;9.20;10.90;;;;;;5049115;28;20468;-71
2024/03/05 10:18:55;;;;;;;8.67;6.20;;;9.20;9.90;;;;;;5048633;28;20955;-71
2024/03/05 10:21:23;;;;;;;9.70;6.20;;;9.00;9.80;;;;;;5031512;28;20190;-72
2024/03/05 10:24:02;;;;;;;6.87;5.53;;;9.00;12.40;;;;;;5048504;28;20191;-71
2024/03/05 10:26:30;;;;;;;9.37;5.60;;;9.00;10.90;;;;;;5052128;28;20499;-71
2024/03/05 10:28:57;;;;;;;6.43;4.80;;;9.00;10.60;;;;;;5052253;28;20444;-71
2024/03/05 10:31:28;;;;;;;6.93;5.30;;;8.90;9.70;;;;;;5053001;28;20770;-72
2024/03/05 10:33:56;;;;;;;7.40;5.40;;;8.80;9.90;;;;;;5052820;28;20755;-73
2024/03/05 10:36:48;;;;;;;10.30;6.60;;;8.70;11.80;;;;;;5052718;28;20427;-71
2024/03/05 10:39:14;;;;;;;10.47;5.40;;;8.60;13.90;;;;;;5052703;28;20436;-70
2024/03/05 10:41:40;;;;;;;7.80;5.17;;;8.60;12.50;;;;;;5052036;28;20439;-71
2024/03/05 10:44:07;;;;;;;5.90;4.07;;;8.60;13.60;;;;;;5051582;28;20178;-71
2024/03/05 10:46:35;;;;;;;9.90;4.73;;;8.40;12.00;;;;;;5047558;28;20424;-69
2024/03/05 10:49:07;;;;;;;6.80;3.50;;;8.40;13.80;;;;;;5048180;28;20432;-70
2024/03/05 10:51:39;;;;;;;4.80;3.20;;;8.60;13.90;;;;;;5048584;28;20416;-71
2024/03/05 10:54:05;;;;;;;5.17;2.20;;;8.60;12.10;;;;;;5048502;28;20991;-70
2024/03/05 10:56:32;;;;;;;3.53;2.10;;;8.50;12.30;;;;;;5047980;28;20522;-71
2024/03/05 10:59:30;;;;;;;2.50;1.50;;;8.70;13.60;;;;;;5048140;28;20935;-72
2024/03/05 11:01:58;;;;;;;2.30;1.07;;;8.40;9.40;;;;;;5048471;28;20727;-71
2024/03/05 11:04:25;;;;;;;2.27;1.20;;;8.40;9.40;;;;;;5047758;28;20462;-71
2024/03/05 11:06:54;;;;;;;2.10;1.10;;;8.30;10.20;;;;;;5048055;28;20482;-71
2024/03/05 11:09:22;;;;;;;4.13;1.60;;;8.40;9.90;;;;;;5048782;28;20441;-72
2024/03/05 11:12:00;;;;;;;2.40;1.30;;;8.60;9.50;;;;;;5030729;28;20674;-71
2024/03/05 11:14:27;;;;;;;2.47;1.50;;;8.70;10.30;;;;;;5030322;28;20928;-71
2024/03/05 11:17:11;;;;;;;2.97;1.10;;;8.70;9.10;;;;;;5029545;28;20468;-71
2024/03/05 11:19:39;;;;;;;3.30;1.70;;;8.80;8.60;;;;;;5047643;28;20464;-71
2024/03/05 11:22:29;;;;;;;3.80;1.00;;;8.80;9.20;;;;;;5047719;28;20431;-71
2024/03/05 11:24:56;;;;;;;2.37;1.27;;;9.00;8.20;;;;;;5029870;28;20770;-71
2024/03/05 11:27:36;;;;;;;2.97;1.80;;;8.80;8.60;;;;;;5029761;28;20442;-72
2024/03/05 11:30:11;;;;;;;2.10;1.10;;;9.10;8.20;;;;;;5047757;28;20462;-71
2024/03/05 11:32:37;;;;;;;2.60;1.20;;;9.40;8.40;;;;;;5047563;28;20488;-72
2024/03/05 11:35:07;;;;;;;3.40;1.37;;;9.80;4.40;;;;;;5047907;28;20513;-70
2024/03/05 11:37:49;;;;;;;2.23;0.90;;;9.80;4.70;;;;;;5048579;28;20428;-71
2024/03/05 11:40:16;;;;;;;2.47;1.03;;;9.10;4.50;;;;;;5047914;28;20474;-71
2024/03/05 11:42:46;;;;;;;3.13;1.10;;;9.00;6.40;;;;;;5048006;28;20502;-72
2024/03/05 11:45:45;;;;;;;1.73;0.73;;;8.90;7.00;;;;;;5051880;28;20484;-71
2024/03/05 11:48:16;;;;;;;1.80;0.80;;;9.40;6.40;;;;;;5051822;28;20778;-70
2024/03/05 11:50:42;;;;;;;6.70;1.20;;;9.10;5.40;;;;;;5051645;28;20452;-70
2024/03/05 11:53:09;;;;;;;2.27;1.10;;;9.20;5.50;;;;;;5055484;28;20908;-71
2024/03/05 11:55:36;;;;;;;1.83;1.00;;;9.50;5.60;;;;;;5037283;28;20456;-70
2024/03/05 11:58:01;;;;;;;2.00;0.97;;;9.90;4.20;;;;;;5037818;28;20420;-71
2024/03/05 12:00:28;;;;;;;2.13;1.20;;;10.00;1.00;;;;;;5037552;28;21019;-71
2024/03/05 12:02:54;;;;;;;1.90;0.70;;;9.80;2.30;;;;;;5055634;28;20166;-70
2024/03/05 12:05:21;;;;;;;1.87;1.00;;;9.90;2.20;;;;;;5056547;28;20437;-71
2024/03/05 12:08:00;;;;;;;1.97;0.80;;;10.00;1.00;;;;;;5043025;28;20413;-70
2024/03/05 12:10:34;;;;;;;2.57;1.13;;;9.90;1.30;;;;;;5038116;28;20975;-71
2024/03/05 12:13:00;;;;;;;2.30;0.93;;;10.00;1.00;;;;;;5037591;28;20428;-72
2024/03/05 12:15:30;;;;;;;1.73;0.73;;;10.60;1.00;;;;;;5038417;28;20855;-70
2024/03/05 12:17:56;;;;;;;4.60;1.10;;;10.80;1.00;;;;;;5056172;28;20456;-71
2024/03/05 12:20:23;;;;;;;2.10;0.90;;;10.90;1.00;;;;;;5038488;28;20440;-71
2024/03/05 12:22:55;;;;;;;3.00;1.10;;;11.00;1.00;;;;;;5057037;28;20439;-71
2024/03/05 12:25:28;;;;;;;2.23;1.07;;;11.00;1.00;;;;;;5060060;28;20433;-71
2024/03/05 12:27:53;;;;;;;2.83;1.47;;;11.20;1.00;;;;;;5052354;28;20436;-71
2024/03/05 12:30:20;;;;;;;2.80;1.27;;;11.40;1.00;;;;;;5053071;28;20461;-72
2024/03/05 12:32:52;;;;;;;2.13;0.83;;;11.60;1.00;;;;;;5051967;28;20525;-72
2024/03/05 12:35:21;;;;;;;1.80;0.70;;;11.80;1.00;;;;;;5069200;28;20461;-71
2024/03/05 12:37:50;;;;;;;3.13;1.03;;;11.90;1.00;;;;;;5040898;28;20425;-71
2024/03/05 12:40:21;;;;;;;1.80;0.73;;;11.80;1.00;;;;;;5056226;28;20479;-72
2024/03/05 12:42:50;;;;;;;1.70;0.70;;;11.40;1.00;;;;;;5039453;28;20515;-71
2024/03/05 12:45:17;;;;;;;1.83;0.63;;;11.10;1.00;;;;;;5038581;28;20425;-71
2024/03/05 12:48:08;;;;;;;2.57;1.00;;;11.50;1.00;;;;;;5055313;28;20421;-69
2024/03/05 12:50:35;;;;;;;2.10;0.83;;;11.60;1.00;;;;;;5037232;28;20452;-71